Time;durP1;ratioP1;P1;durP2;ratioP2;P2;SDS_P1;SDS_P2;PMS_P1;PMS_P2;Temp;Humidity;BMP_temperature;BMP_pressure;BME280_temperature;BME280_humidity;BME280_pressure;Samples;Min_cycle;Max_cycle;Signal;HPM_P1;HPM_P2
2022/07/30 00:01:10;;;;;;;4.63;3.88;;;19.80;73.40;;;;;;5045926;28;20034;-59
2022/07/30 00:03:35;;;;;;;3.33;3.00;;;19.80;73.40;;;;;;5049436;28;20030;-60
2022/07/30 00:06:01;;;;;;;5.22;3.30;;;19.70;73.30;;;;;;5043936;28;20045;-59
2022/07/30 00:08:27;;;;;;;5.78;4.28;;;19.70;73.30;;;;;;5039765;28;20032;-60
2022/07/30 00:10:53;;;;;;;4.03;3.65;;;19.70;73.30;;;;;;5035873;28;20040;-59
2022/07/30 00:13:19;;;;;;;7.80;3.92;;;19.60;73.20;;;;;;5044637;28;20026;-58
2022/07/30 00:15:45;;;;;;;3.42;2.90;;;19.60;73.10;;;;;;5042340;28;20029;-60
2022/07/30 00:18:11;;;;;;;3.83;3.40;;;19.60;73.10;;;;;;5039712;28;20024;-60
2022/07/30 00:20:39;;;;;;;3.47;3.13;;;19.50;73.20;;;;;;5043999;28;20052;-60
2022/07/30 00:23:05;;;;;;;6.20;3.50;;;19.50;73.30;;;;;;5040272;28;20037;-60
2022/07/30 00:25:31;;;;;;;8.20;3.80;;;19.50;73.40;;;;;;5036306;28;20046;-60
2022/07/30 00:27:57;;;;;;;3.90;3.47;;;19.40;73.40;;;;;;5036808;28;20021;-60
2022/07/30 00:30:23;;;;;;;3.70;3.28;;;19.40;73.50;;;;;;5046577;28;20052;-60
2022/07/30 00:32:49;;;;;;;6.95;3.97;;;19.30;73.60;;;;;;5045977;28;20056;-60
2022/07/30 00:35:15;;;;;;;6.28;4.05;;;19.30;73.80;;;;;;5032954;28;20113;-60
2022/07/30 00:37:40;;;;;;;7.82;3.47;;;19.30;73.80;;;;;;5032152;28;20053;-59
2022/07/30 00:40:08;;;;;;;5.20;3.50;;;19.30;73.80;;;;;;5051351;28;20073;-61
2022/07/30 00:42:42;;;;;;;3.92;3.28;;;19.20;73.70;;;;;;5044203;28;20038;-59
2022/07/30 00:45:09;;;;;;;6.07;3.63;;;19.20;73.90;;;;;;5032505;28;20085;-59
2022/07/30 00:47:35;;;;;;;7.60;3.53;;;19.20;73.70;;;;;;5051702;28;20030;-60
2022/07/30 00:50:03;;;;;;;4.30;3.67;;;19.20;73.80;;;;;;5045177;28;20061;-60
2022/07/30 00:52:32;;;;;;;4.43;3.50;;;19.20;74.60;;;;;;5030959;28;20034;-60
2022/07/30 00:54:59;;;;;;;7.57;3.80;;;19.10;73.80;;;;;;5030269;28;20022;-61
2022/07/30 00:57:26;;;;;;;4.68;3.35;;;19.10;73.60;;;;;;5045615;28;20064;-59
2022/07/30 00:59:52;;;;;;;6.68;3.28;;;19.10;73.70;;;;;;5037047;28;20022;-60
2022/07/30 01:02:18;;;;;;;4.82;3.03;;;19.00;73.80;;;;;;5039893;28;20080;-59
2022/07/30 01:04:44;;;;;;;7.22;3.50;;;19.00;73.80;;;;;;5041482;28;20103;-60
2022/07/30 01:07:09;;;;;;;3.63;3.15;;;19.00;73.80;;;;;;5026111;28;20084;-59
2022/07/30 01:09:37;;;;;;;5.68;3.03;;;19.00;73.70;;;;;;5042884;28;20025;-59
2022/07/30 01:12:05;;;;;;;5.10;2.47;;;19.00;73.70;;;;;;5026685;28;20041;-60
2022/07/30 01:14:31;;;;;;;2.58;2.38;;;18.90;73.50;;;;;;5038139;28;20053;-59
2022/07/30 01:16:57;;;;;;;4.70;2.70;;;18.90;73.30;;;;;;5029531;28;20057;-59
2022/07/30 01:22:44;;;;;;;3.03;2.83;;;18.80;73.20;;;;;;5026027;28;20090;-60
2022/07/30 01:25:38;;;;;;;3.65;3.00;;;18.80;73.70;;;;;;5041564;28;20060;-59
2022/07/30 01:28:11;;;;;;;4.50;3.10;;;18.80;73.60;;;;;;5027624;28;20034;-59
2022/07/30 01:30:43;;;;;;;4.20;3.00;;;18.70;73.30;;;;;;5024100;28;20030;-59
2022/07/30 01:33:15;;;;;;;6.15;2.97;;;18.70;73.30;;;;;;5032696;28;20021;-59
2022/07/30 01:35:45;;;;;;;4.70;2.78;;;18.60;73.40;;;;;;5035294;28;20108;-60
2022/07/30 01:38:13;;;;;;;9.25;3.55;;;18.60;73.40;;;;;;5031371;28;20376;-60
2022/07/30 01:40:39;;;;;;;3.38;2.88;;;18.60;73.40;;;;;;5039536;28;20388;-60
2022/07/30 01:43:07;;;;;;;3.83;2.97;;;18.60;73.50;;;;;;5043286;28;20029;-60
2022/07/30 01:45:33;;;;;;;4.55;2.67;;;18.50;73.40;;;;;;5035229;28;20046;-59
2022/07/30 01:48:02;;;;;;;4.53;2.50;;;18.50;73.30;;;;;;5047683;28;20025;-59
2022/07/30 01:50:29;;;;;;;3.10;2.80;;;18.50;73.30;;;;;;5044925;28;20603;-60
2022/07/30 01:52:57;;;;;;;5.72;3.05;;;18.50;73.30;;;;;;5043286;28;20037;-60
2022/07/30 01:55:32;;;;;;;3.90;3.05;;;18.40;73.40;;;;;;5033895;28;20048;-59
2022/07/30 01:57:59;;;;;;;3.15;2.67;;;18.40;73.50;;;;;;5034911;28;20025;-60
2022/07/30 02:00:29;;;;;;;6.95;2.80;;;18.40;73.40;;;;;;5042945;28;20049;-60
2022/07/30 02:02:55;;;;;;;3.15;2.47;;;18.40;73.40;;;;;;5038261;28;20036;-59
2022/07/30 02:05:21;;;;;;;3.78;2.95;;;18.40;73.50;;;;;;5026692;28;20049;-59
2022/07/30 02:08:14;;;;;;;4.53;2.80;;;18.30;73.60;;;;;;5037417;28;20030;-59
2022/07/30 02:10:54;;;;;;;8.05;2.42;;;18.30;73.60;;;;;;5028461;28;20029;-60
2022/07/30 02:13:24;;;;;;;3.40;2.42;;;18.30;73.30;;;;;;5037381;28;20029;-60
2022/07/30 02:16:15;;;;;;;3.03;2.72;;;18.30;73.30;;;;;;5050389;28;20033;-60
2022/07/30 02:19:12;;;;;;;3.20;2.90;;;18.30;73.60;;;;;;5024231;28;20025;-61
2022/07/30 02:21:42;;;;;;;3.85;3.47;;;18.20;73.80;;;;;;5035767;28;20034;-60
2022/07/30 02:24:13;;;;;;;7.60;2.95;;;18.20;73.60;;;;;;5042279;28;20025;-60
2022/07/30 02:26:41;;;;;;;5.32;3.03;;;18.20;73.70;;;;;;4929200;28;20041;-61
2022/07/30 02:29:08;;;;;;;3.40;2.72;;;18.20;73.50;;;;;;5024272;28;20049;-61
2022/07/30 02:31:37;;;;;;;5.38;2.72;;;18.10;73.50;;;;;;5042663;28;20022;-60
2022/07/30 02:34:05;;;;;;;6.68;2.72;;;18.10;73.70;;;;;;5039501;28;20028;-60
2022/07/30 02:36:32;;;;;;;3.10;2.80;;;18.10;73.80;;;;;;5040627;28;20053;-60
2022/07/30 02:39:00;;;;;;;5.43;3.60;;;18.10;74.10;;;;;;5037733;28;20076;-59
2022/07/30 02:41:28;;;;;;;7.00;3.80;;;18.10;74.20;;;;;;5041180;28;20136;-60
2022/07/30 02:43:54;;;;;;;8.48;4.55;;;18.10;74.20;;;;;;5049835;28;20085;-59
2022/07/30 02:46:22;;;;;;;6.40;3.92;;;18.10;74.40;;;;;;5045735;28;20063;-58
2022/07/30 02:48:50;;;;;;;3.72;3.42;;;18.00;74.40;;;;;;5025451;28;20110;-62
2022/07/30 02:51:18;;;;;;;10.32;3.97;;;18.00;74.40;;;;;;5038665;28;20448;-59
2022/07/30 02:53:46;;;;;;;4.35;3.78;;;18.00;74.50;;;;;;5045903;28;20057;-59
2022/07/30 02:56:14;;;;;;;9.05;3.75;;;18.00;74.60;;;;;;5032571;28;20029;-59
2022/07/30 02:58:43;;;;;;;8.57;3.53;;;18.00;75.30;;;;;;5042135;28;20029;-60
2022/07/30 03:01:12;;;;;;;4.45;3.40;;;18.00;74.60;;;;;;5055007;28;20041;-59
2022/07/30 03:03:41;;;;;;;10.30;3.47;;;18.00;74.70;;;;;;5032098;28;20030;-60
2022/07/30 03:06:09;;;;;;;5.40;3.30;;;18.00;74.70;;;;;;5041106;28;20049;-59
2022/07/30 03:08:35;;;;;;;11.40;3.70;;;17.90;74.60;;;;;;5031744;28;20045;-60
2022/07/30 03:11:02;;;;;;;3.50;2.90;;;17.90;74.70;;;;;;5049821;28;20045;-59
2022/07/30 03:13:28;;;;;;;6.60;3.67;;;17.90;74.70;;;;;;5029405;28;20086;-59
2022/07/30 03:15:57;;;;;;;4.20;3.38;;;17.90;74.70;;;;;;5041820;28;20050;-59
2022/07/30 03:18:26;;;;;;;3.08;2.78;;;17.90;74.90;;;;;;5038321;28;20037;-61
2022/07/30 03:20:55;;;;;;;3.28;2.97;;;17.90;74.90;;;;;;5045291;28;20026;-60
2022/07/30 03:23:22;;;;;;;6.03;3.53;;;17.80;74.90;;;;;;5045331;28;20025;-61
2022/07/30 03:25:56;;;;;;;6.53;3.67;;;17.80;75.10;;;;;;5038835;28;20043;-59
2022/07/30 03:28:24;;;;;;;4.32;3.65;;;17.80;75.10;;;;;;5049091;28;20071;-61
2022/07/30 03:30:51;;;;;;;4.32;3.35;;;17.80;75.10;;;;;;5043758;28;20041;-59
2022/07/30 03:33:18;;;;;;;5.80;3.53;;;17.90;75.30;;;;;;5045868;28;20032;-59
2022/07/30 03:35:46;;;;;;;6.90;3.40;;;17.80;75.30;;;;;;5049418;28;20511;-59
2022/07/30 03:38:14;;;;;;;3.75;3.22;;;17.80;75.40;;;;;;5038652;28;20036;-60
2022/07/30 03:40:41;;;;;;;3.67;3.08;;;17.80;75.50;;;;;;5037272;28;20468;-59
2022/07/30 03:43:12;;;;;;;9.15;3.15;;;17.90;75.40;;;;;;5032704;28;20046;-60
2022/07/30 03:45:41;;;;;;;4.07;3.53;;;17.90;76.20;;;;;;5035579;28;20087;-59
2022/07/30 03:48:08;;;;;;;3.45;3.15;;;17.90;75.40;;;;;;5041963;28;20036;-59
2022/07/30 03:50:39;;;;;;;5.85;3.33;;;17.90;75.50;;;;;;5035981;28;20025;-59
2022/07/30 03:53:07;;;;;;;9.20;3.40;;;17.90;75.70;;;;;;5037554;28;20022;-59
2022/07/30 03:55:33;;;;;;;6.50;3.45;;;17.90;75.60;;;;;;5036136;28;20030;-60
2022/07/30 03:58:02;;;;;;;11.80;3.40;;;17.90;75.50;;;;;;5043207;28;20029;-60
2022/07/30 04:00:28;;;;;;;9.63;3.53;;;18.00;75.70;;;;;;5047024;28;20035;-60
2022/07/30 04:02:55;;;;;;;5.45;3.15;;;18.00;75.60;;;;;;5038854;28;20040;-60
2022/07/30 04:05:21;;;;;;;9.70;3.70;;;18.00;75.60;;;;;;5046898;28;20045;-59
2022/07/30 04:07:47;;;;;;;6.88;3.83;;;18.00;75.50;;;;;;5032771;28;20141;-60
2022/07/30 04:10:14;;;;;;;3.92;3.47;;;18.00;75.60;;;;;;5039511;28;20133;-60
2022/07/30 04:12:39;;;;;;;7.78;3.92;;;18.00;75.70;;;;;;5039442;28;20061;-60
2022/07/30 04:15:06;;;;;;;4.60;3.30;;;18.00;75.70;;;;;;5034901;28;20034;-60
2022/07/30 04:17:40;;;;;;;5.72;4.03;;;18.10;75.80;;;;;;5038043;28;20038;-59
2022/07/30 04:20:30;;;;;;;8.40;3.92;;;18.10;76.20;;;;;;5040037;28;20033;-59
2022/07/30 04:22:57;;;;;;;9.82;4.18;;;18.10;76.70;;;;;;5049909;28;20027;-59
2022/07/30 04:25:24;;;;;;;6.78;4.13;;;18.10;76.00;;;;;;5043802;28;20018;-60
2022/07/30 04:27:50;;;;;;;7.80;4.20;;;18.10;76.00;;;;;;5035815;28;20029;-61
2022/07/30 04:30:16;;;;;;;8.82;4.45;;;18.20;76.10;;;;;;5045121;28;20112;-59
2022/07/30 04:32:42;;;;;;;5.53;3.90;;;18.20;76.10;;;;;;5032351;28;20032;-60
2022/07/30 04:35:08;;;;;;;5.80;4.00;;;18.30;76.20;;;;;;5032536;28;20048;-59
2022/07/30 04:37:33;;;;;;;6.15;4.32;;;18.30;76.20;;;;;;5044105;28;20081;-60
2022/07/30 04:39:59;;;;;;;9.55;4.78;;;18.40;76.30;;;;;;5039889;28;20088;-59
2022/07/30 04:42:29;;;;;;;8.15;4.47;;;18.40;76.30;;;;;;5065732;28;20044;-59
2022/07/30 04:44:56;;;;;;;8.85;4.30;;;18.50;76.50;;;;;;5046313;28;20026;-60
2022/07/30 04:47:22;;;;;;;5.40;3.60;;;18.60;76.30;;;;;;5037706;28;20044;-60
2022/07/30 04:49:49;;;;;;;4.75;4.07;;;18.60;76.10;;;;;;5036724;28;20044;-58
2022/07/30 04:52:17;;;;;;;9.40;4.40;;;18.70;75.80;;;;;;5029335;28;20034;-60
2022/07/30 04:54:48;;;;;;;7.78;4.65;;;18.70;75.70;;;;;;5065737;28;20026;-58
2022/07/30 04:57:15;;;;;;;7.45;4.72;;;18.80;75.80;;;;;;5033285;28;20128;-59
2022/07/30 04:59:41;;;;;;;7.30;4.60;;;18.80;75.50;;;;;;5041329;28;20037;-59
2022/07/30 05:02:09;;;;;;;5.53;4.00;;;18.90;75.50;;;;;;5046821;28;20033;-60
2022/07/30 05:04:35;;;;;;;8.82;4.38;;;18.90;75.40;;;;;;5040515;28;20041;-60
2022/07/30 05:07:02;;;;;;;6.57;4.88;;;19.00;75.50;;;;;;5037266;28;20040;-60
2022/07/30 05:09:29;;;;;;;7.05;4.57;;;19.10;75.60;;;;;;5032106;28;20025;-61
2022/07/30 05:11:56;;;;;;;7.10;4.03;;;19.20;75.50;;;;;;5041077;28;20029;-59
2022/07/30 05:14:23;;;;;;;5.95;4.05;;;19.20;75.10;;;;;;5038458;28;20025;-60
2022/07/30 05:16:50;;;;;;;12.52;4.68;;;19.30;74.80;;;;;;5041561;28;20029;-58
2022/07/30 05:19:16;;;;;;;5.30;4.15;;;19.40;74.70;;;;;;5061812;28;20032;-60
2022/07/30 05:21:42;;;;;;;9.73;4.40;;;19.50;74.60;;;;;;5038019;28;20086;-60
2022/07/30 05:24:08;;;;;;;6.95;4.22;;;19.60;74.40;;;;;;5032949;28;20156;-60
2022/07/30 05:26:34;;;;;;;4.15;3.75;;;19.70;74.00;;;;;;5032416;28;20041;-59
2022/07/30 05:29:00;;;;;;;4.20;3.67;;;19.70;73.70;;;;;;5041559;28;20147;-60
2022/07/30 05:31:26;;;;;;;10.60;4.43;;;19.80;73.40;;;;;;5039762;28;20036;-60
2022/07/30 05:33:52;;;;;;;6.43;3.95;;;19.90;73.40;;;;;;5032014;28;20029;-59
2022/07/30 05:36:18;;;;;;;5.35;3.55;;;20.00;73.40;;;;;;5042983;28;20028;-60
2022/07/30 05:38:44;;;;;;;5.65;3.90;;;20.10;73.20;;;;;;5043452;28;20033;-60
2022/07/30 05:41:10;;;;;;;6.80;3.97;;;20.20;73.10;;;;;;5039837;28;20501;-60
2022/07/30 05:43:35;;;;;;;7.93;3.78;;;20.30;72.60;;;;;;5036990;28;20045;-60
2022/07/30 05:46:01;;;;;;;8.00;4.05;;;20.40;72.20;;;;;;5040284;28;20038;-60
2022/07/30 05:48:27;;;;;;;10.85;4.03;;;20.40;71.80;;;;;;5042791;28;20029;-61
2022/07/30 05:50:53;;;;;;;8.93;4.10;;;20.50;71.50;;;;;;5038206;28;20026;-60
2022/07/30 05:53:19;;;;;;;5.30;3.25;;;20.60;71.10;;;;;;5033485;28;20033;-60
2022/07/30 05:55:44;;;;;;;6.43;4.10;;;20.70;70.90;;;;;;5043135;28;20025;-59
2022/07/30 05:58:10;;;;;;;12.80;4.35;;;20.80;70.50;;;;;;5029433;28;20041;-58
2022/07/30 06:00:36;;;;;;;5.55;3.55;;;20.90;69.80;;;;;;5040881;28;20024;-60
2022/07/30 06:03:02;;;;;;;6.90;4.22;;;21.00;69.50;;;;;;5043164;28;20029;-59
2022/07/30 06:05:28;;;;;;;8.15;3.67;;;21.30;69.40;;;;;;5042856;28;20115;-59
2022/07/30 06:07:54;;;;;;;7.57;3.33;;;21.20;69.10;;;;;;5039822;28;20433;-61
2022/07/30 06:10:19;;;;;;;8.27;3.33;;;21.30;68.90;;;;;;5037114;28;20037;-61
2022/07/30 06:12:45;;;;;;;8.32;3.38;;;21.40;68.50;;;;;;5044451;28;20030;-60
2022/07/30 06:15:11;;;;;;;7.68;3.60;;;21.50;67.90;;;;;;5039427;28;20033;-60
2022/07/30 06:17:44;;;;;;;6.47;3.55;;;21.60;67.70;;;;;;5033782;28;20026;-59
2022/07/30 06:20:14;;;;;;;4.65;3.13;;;21.80;67.30;;;;;;5034277;28;20036;-59
2022/07/30 06:22:40;;;;;;;7.38;3.42;;;21.90;66.70;;;;;;5031446;28;20053;-58
2022/07/30 06:25:06;;;;;;;6.57;2.90;;;22.00;67.10;;;;;;5042168;28;20048;-59
2022/07/30 06:27:32;;;;;;;8.73;3.20;;;22.10;66.70;;;;;;5034427;28;20045;-58
2022/07/30 06:30:00;;;;;;;7.68;3.15;;;22.20;66.00;;;;;;5042481;28;20058;-59
2022/07/30 06:32:25;;;;;;;4.60;3.20;;;22.30;65.30;;;;;;5047775;28;20471;-60
2022/07/30 06:34:51;;;;;;;5.85;3.15;;;22.40;65.00;;;;;;5044330;28;20037;-60
2022/07/30 06:37:16;;;;;;;6.30;3.05;;;22.50;64.70;;;;;;5050013;28;20041;-60
2022/07/30 06:39:42;;;;;;;4.57;2.80;;;22.60;64.20;;;;;;5031323;28;20036;-58
2022/07/30 06:42:08;;;;;;;4.40;2.55;;;22.70;64.30;;;;;;5052308;28;20075;-61
2022/07/30 06:44:33;;;;;;;5.57;2.83;;;22.70;64.10;;;;;;5042525;28;20235;-60
2022/07/30 06:46:59;;;;;;;4.22;2.40;;;22.80;63.40;;;;;;5031406;28;20041;-59
2022/07/30 06:49:25;;;;;;;6.75;3.42;;;22.90;63.50;;;;;;5043940;28;20098;-61
2022/07/30 06:51:51;;;;;;;5.85;3.05;;;22.90;62.30;;;;;;5052238;28;20032;-61
2022/07/30 06:54:16;;;;;;;5.45;3.08;;;22.90;61.30;;;;;;5049749;28;20088;-61
2022/07/30 06:56:42;;;;;;;4.47;3.00;;;22.90;61.60;;;;;;5030997;28;20029;-60
2022/07/30 06:59:08;;;;;;;5.53;2.95;;;22.90;61.30;;;;;;5045898;28;20569;-61
2022/07/30 07:01:33;;;;;;;5.07;2.88;;;22.80;61.40;;;;;;5039460;28;20026;-60
2022/07/30 07:03:59;;;;;;;7.63;2.75;;;22.90;61.80;;;;;;5045121;28;20037;-61
2022/07/30 07:06:25;;;;;;;10.55;2.90;;;22.90;61.40;;;;;;5044726;28;20154;-61
2022/07/30 07:08:50;;;;;;;4.95;3.00;;;22.90;61.40;;;;;;5037324;28;20021;-60
2022/07/30 07:11:16;;;;;;;6.53;3.13;;;22.90;61.00;;;;;;5041597;28;20067;-60
2022/07/30 07:13:42;;;;;;;7.55;3.53;;;22.90;61.30;;;;;;5051098;28;20030;-60
2022/07/30 07:16:08;;;;;;;4.65;2.90;;;23.00;60.30;;;;;;5038062;28;20025;-61
2022/07/30 07:18:33;;;;;;;5.30;3.35;;;23.00;60.60;;;;;;5038383;28;20036;-61
2022/07/30 07:20:59;;;;;;;8.55;3.72;;;23.00;59.90;;;;;;5034972;28;20040;-60
2022/07/30 07:23:25;;;;;;;4.78;3.25;;;23.00;60.30;;;;;;5039029;28;20049;-60
2022/07/30 07:25:50;;;;;;;6.13;3.10;;;23.10;60.50;;;;;;5039492;28;20112;-60
2022/07/30 07:28:16;;;;;;;11.23;3.60;;;23.10;60.60;;;;;;5035598;28;20049;-60
2022/07/30 07:30:42;;;;;;;5.30;2.78;;;23.20;60.60;;;;;;5036928;28;20029;-61
2022/07/30 07:33:09;;;;;;;10.70;3.35;;;23.30;60.60;;;;;;5033745;28;20409;-61
2022/07/30 07:35:35;;;;;;;9.93;3.08;;;23.40;59.30;;;;;;5034634;28;20408;-61
2022/07/30 07:38:01;;;;;;;6.93;2.85;;;23.40;59.30;;;;;;5032979;28;20025;-61
2022/07/30 07:40:27;;;;;;;10.80;3.80;;;23.50;59.60;;;;;;5037508;28;20219;-61
2022/07/30 07:42:52;;;;;;;5.95;3.40;;;23.50;58.90;;;;;;5036624;28;20400;-62
2022/07/30 07:45:18;;;;;;;8.65;3.65;;;23.70;59.20;;;;;;5036988;28;20040;-58
2022/07/30 07:47:45;;;;;;;11.57;3.72;;;23.70;58.70;;;;;;5031674;28;21410;-60
2022/07/30 07:50:14;;;;;;;8.48;3.53;;;23.80;58.30;;;;;;5034431;28;20037;-60
2022/07/30 07:52:39;;;;;;;4.45;3.22;;;23.80;57.80;;;;;;5041194;28;20049;-60
2022/07/30 07:55:06;;;;;;;7.68;3.63;;;23.90;58.20;;;;;;5044461;28;20026;-60
2022/07/30 07:57:38;;;;;;;8.48;4.32;;;23.90;57.70;;;;;;5039924;28;20745;-60
2022/07/30 08:00:05;;;;;;;6.78;3.97;;;24.00;56.60;;;;;;5040526;28;20030;-61
2022/07/30 08:02:30;;;;;;;6.22;3.72;;;24.00;57.10;;;;;;5040467;28;20030;-59
2022/07/30 08:04:57;;;;;;;17.88;4.05;;;24.10;57.70;;;;;;5041739;28;20590;-60
2022/07/30 08:07:22;;;;;;;6.07;3.90;;;24.10;57.30;;;;;;5054046;28;20436;-60
2022/07/30 08:09:48;;;;;;;5.00;3.40;;;24.20;57.60;;;;;;5042438;28;20029;-61
2022/07/30 08:12:14;;;;;;;7.38;4.05;;;24.30;57.50;;;;;;5043620;28;20141;-63
2022/07/30 08:14:39;;;;;;;7.28;2.63;;;24.40;56.80;;;;;;5039757;28;20075;-60
2022/07/30 08:17:05;;;;;;;6.22;3.13;;;24.50;56.80;;;;;;5055844;28;20032;-61
2022/07/30 08:19:31;;;;;;;6.57;2.97;;;24.60;55.90;;;;;;5042234;28;20038;-61
2022/07/30 08:21:58;;;;;;;6.28;2.90;;;24.70;55.30;;;;;;5048159;28;20037;-62
2022/07/30 08:24:25;;;;;;;8.30;3.05;;;24.70;55.30;;;;;;5042820;28;20449;-59
2022/07/30 08:26:50;;;;;;;4.22;3.38;;;24.70;55.20;;;;;;5049532;28;20589;-59
2022/07/30 08:29:16;;;;;;;9.23;2.92;;;24.80;53.60;;;;;;5046269;28;20057;-58
2022/07/30 08:31:42;;;;;;;9.65;2.53;;;24.80;54.00;;;;;;5039594;28;20032;-60
2022/07/30 08:34:08;;;;;;;5.00;2.72;;;24.90;54.50;;;;;;5041534;28;20102;-61
2022/07/30 08:36:34;;;;;;;7.55;3.40;;;25.00;54.30;;;;;;5040966;28;20045;-63
2022/07/30 08:38:59;;;;;;;7.70;3.00;;;25.00;53.10;;;;;;5046229;28;20505;-61
2022/07/30 08:41:26;;;;;;;6.13;2.63;;;25.00;52.30;;;;;;5045476;28;20040;-62
2022/07/30 08:43:53;;;;;;;10.45;2.20;;;25.10;52.10;;;;;;5038890;28;20013;-61
2022/07/30 08:46:23;;;;;;;5.65;2.15;;;25.20;51.70;;;;;;5028833;28;20048;-61
2022/07/30 08:48:51;;;;;;;10.55;2.10;;;25.20;50.50;;;;;;5036610;28;20206;-62
2022/07/30 08:51:18;;;;;;;4.10;1.67;;;25.20;48.80;;;;;;5056243;28;20059;-61
2022/07/30 08:53:44;;;;;;;4.10;1.95;;;25.20;50.00;;;;;;5026906;28;20030;-59
2022/07/30 08:56:11;;;;;;;4.70;2.22;;;25.20;50.50;;;;;;5045942;28;20038;-61
2022/07/30 08:58:36;;;;;;;7.15;2.33;;;25.30;49.50;;;;;;5038669;28;20101;-61
2022/07/30 09:01:04;;;;;;;6.72;2.42;;;25.30;50.30;;;;;;5051046;28;20065;-60
2022/07/30 09:03:30;;;;;;;5.43;2.35;;;25.40;50.70;;;;;;5042970;28;20037;-62
2022/07/30 09:05:56;;;;;;;3.58;2.08;;;25.50;50.40;;;;;;5038966;28;20582;-63
2022/07/30 09:08:21;;;;;;;4.72;2.40;;;25.70;49.40;;;;;;5041744;28;20030;-62
2022/07/30 09:10:47;;;;;;;7.88;3.20;;;25.70;50.10;;;;;;5045465;28;20040;-61
2022/07/30 09:13:27;;;;;;;7.30;2.80;;;25.80;48.50;;;;;;5041537;28;20030;-61
2022/07/30 09:15:54;;;;;;;7.13;2.60;;;25.80;48.00;;;;;;5038962;28;20033;-62
2022/07/30 09:18:32;;;;;;;4.88;2.03;;;25.80;48.60;;;;;;5041342;28;20135;-62
2022/07/30 09:21:16;;;;;;;7.75;2.78;;;25.90;48.50;;;;;;5051502;28;20014;-61
2022/07/30 09:23:57;;;;;;;5.72;1.75;;;25.90;47.70;;;;;;5033559;28;20037;-62
2022/07/30 09:26:23;;;;;;;3.70;1.38;;;26.00;46.40;;;;;;5038264;28;20096;-62
2022/07/30 09:28:48;;;;;;;6.97;2.00;;;25.90;46.50;;;;;;5049435;28;20804;-62
2022/07/30 09:31:15;;;;;;;3.15;1.73;;;26.00;46.50;;;;;;5056346;28;20042;-63
2022/07/30 09:33:43;;;;;;;4.07;1.70;;;26.00;46.70;;;;;;5053579;28;20036;-62
2022/07/30 09:36:11;;;;;;;2.63;1.52;;;26.00;46.00;;;;;;5041048;28;20756;-62
2022/07/30 09:38:50;;;;;;;4.13;1.92;;;26.10;46.40;;;;;;5044400;28;20496;-62
2022/07/30 09:41:21;;;;;;;3.63;1.50;;;26.10;45.80;;;;;;5046911;28;20564;-61
2022/07/30 09:43:49;;;;;;;4.18;1.42;;;26.20;45.70;;;;;;5026239;28;20061;-61
2022/07/30 09:46:15;;;;;;;3.00;1.65;;;26.30;45.50;;;;;;5051512;28;20052;-61
2022/07/30 09:48:42;;;;;;;9.50;2.00;;;26.30;44.40;;;;;;5036648;28;20040;-63
2022/07/30 09:51:08;;;;;;;3.13;1.40;;;26.30;44.00;;;;;;5043271;28;20029;-62
2022/07/30 09:53:35;;;;;;;2.70;1.70;;;26.30;44.00;;;;;;5044389;28;20084;-62
2022/07/30 09:56:28;;;;;;;3.05;1.55;;;26.30;43.30;;;;;;5050586;28;20650;-61
2022/07/30 09:58:54;;;;;;;6.40;1.98;;;26.30;43.00;;;;;;5040491;28;20038;-62
2022/07/30 10:01:20;;;;;;;4.65;1.75;;;26.40;43.30;;;;;;5042900;28;20045;-59
2022/07/30 10:03:46;;;;;;;4.07;1.50;;;26.50;43.80;;;;;;5044632;28;20034;-60
2022/07/30 10:06:12;;;;;;;4.07;1.88;;;26.50;42.20;;;;;;5043982;28;20037;-63
2022/07/30 10:08:50;;;;;;;4.68;1.70;;;26.50;42.80;;;;;;5041357;28;20065;-60
2022/07/30 10:11:24;;;;;;;2.67;1.50;;;26.50;42.10;;;;;;5040032;28;20132;-61
2022/07/30 10:13:55;;;;;;;3.35;1.55;;;26.50;43.30;;;;;;5035828;28;20451;-62
2022/07/30 10:16:21;;;;;;;4.25;1.50;;;26.60;43.30;;;;;;5036980;28;20032;-62
2022/07/30 10:18:47;;;;;;;2.78;1.40;;;26.70;43.90;;;;;;5045960;28;20032;-63
2022/07/30 10:21:14;;;;;;;3.22;1.50;;;26.80;44.40;;;;;;5030301;28;20034;-62
2022/07/30 10:23:40;;;;;;;1.95;1.23;;;26.90;42.80;;;;;;5036641;28;20026;-63
2022/07/30 10:26:08;;;;;;;4.50;1.90;;;27.00;43.00;;;;;;5063258;28;20033;-61
2022/07/30 10:28:34;;;;;;;2.45;1.05;;;27.00;42.70;;;;;;5045737;28;20060;-62
2022/07/30 10:30:59;;;;;;;4.38;1.80;;;27.00;43.40;;;;;;5044330;28;20034;-61
2022/07/30 10:33:28;;;;;;;4.13;1.50;;;27.00;41.70;;;;;;5048715;28;20032;-60
2022/07/30 10:35:55;;;;;;;3.22;1.52;;;27.00;42.00;;;;;;5049278;28;20052;-60
2022/07/30 10:38:23;;;;;;;2.85;1.48;;;27.00;41.60;;;;;;5056979;28;20024;-62
2022/07/30 10:40:57;;;;;;;4.70;1.48;;;27.00;41.00;;;;;;5045409;28;20018;-62
2022/07/30 10:43:41;;;;;;;4.63;1.90;;;27.10;41.00;;;;;;5043738;28;20800;-63
2022/07/30 10:46:37;;;;;;;3.22;1.50;;;27.10;40.30;;;;;;5033945;28;20436;-63
2022/07/30 10:49:11;;;;;;;4.22;1.05;;;27.10;39.90;;;;;;5040322;28;20096;-62
2022/07/30 10:51:51;;;;;;;7.00;1.55;;;27.10;39.90;;;;;;5036461;28;20061;-63
2022/07/30 10:54:36;;;;;;;1.75;1.45;;;27.10;38.90;;;;;;5043299;28;20342;-61
2022/07/30 10:57:07;;;;;;;5.35;1.75;;;27.00;39.50;;;;;;5029611;28;20057;-62
2022/07/30 10:59:48;;;;;;;7.40;1.67;;;27.00;39.00;;;;;;5059780;28;20056;-60
2022/07/30 11:02:17;;;;;;;4.13;1.73;;;26.90;39.70;;;;;;5030862;28;20029;-61
2022/07/30 11:04:43;;;;;;;3.67;1.60;;;26.80;39.70;;;;;;5055563;28;20067;-61
2022/07/30 11:07:21;;;;;;;4.45;1.33;;;26.70;40.70;;;;;;5040646;28;20033;-62
2022/07/30 11:09:48;;;;;;;2.70;1.58;;;26.70;40.10;;;;;;5043537;28;20048;-61
2022/07/30 11:12:14;;;;;;;1.98;1.20;;;26.80;40.70;;;;;;5046143;28;20458;-60
2022/07/30 11:14:45;;;;;;;2.80;1.30;;;26.90;40.60;;;;;;5040640;28;20047;-60
2022/07/30 11:17:16;;;;;;;4.55;1.45;;;27.00;40.70;;;;;;5029724;28;20029;-61
2022/07/30 11:20:01;;;;;;;2.95;1.67;;;27.20;39.90;;;;;;5036238;28;20029;-60
2022/07/30 11:22:37;;;;;;;5.78;1.13;;;27.40;41.80;;;;;;5043647;28;20041;-60
2022/07/30 11:25:04;;;;;;;2.95;1.50;;;27.60;40.40;;;;;;5038454;28;20033;-62
2022/07/30 11:27:45;;;;;;;2.35;1.38;;;27.80;40.20;;;;;;5044066;28;20113;-61
2022/07/30 11:30:17;;;;;;;5.50;1.40;;;27.90;38.90;;;;;;5033380;28;20107;-62
2022/07/30 11:32:51;;;;;;;4.55;1.33;;;28.00;38.60;;;;;;5033237;28;20025;-62
2022/07/30 11:35:34;;;;;;;3.25;1.30;;;28.10;40.30;;;;;;5055138;28;20029;-62
2022/07/30 11:38:03;;;;;;;3.38;0.93;;;28.30;38.40;;;;;;5033261;28;20045;-59
2022/07/30 11:40:49;;;;;;;3.72;1.38;;;28.50;37.50;;;;;;5030188;28;20133;-61
2022/07/30 11:43:29;;;;;;;1.58;0.95;;;28.50;39.70;;;;;;5031865;28;20037;-62
2022/07/30 11:46:08;;;;;;;3.05;1.50;;;28.50;38.50;;;;;;5025555;28;20038;-63
2022/07/30 11:48:36;;;;;;;4.88;1.58;;;28.60;36.80;;;;;;5043282;28;20037;-62
2022/07/30 11:51:02;;;;;;;3.40;1.50;;;28.60;37.50;;;;;;5045243;28;20036;-62
2022/07/30 11:53:28;;;;;;;2.70;1.40;;;28.60;38.30;;;;;;5039803;28;20026;-60
2022/07/30 11:55:57;;;;;;;1.10;0.88;;;28.50;37.50;;;;;;5064431;28;20051;-61
2022/07/30 11:58:31;;;;;;;3.55;1.08;;;28.40;37.80;;;;;;5044972;28;20125;-60
2022/07/30 12:01:02;;;;;;;1.75;1.10;;;28.30;37.50;;;;;;5023795;28;20032;-62
2022/07/30 12:03:32;;;;;;;1.88;1.25;;;28.50;37.50;;;;;;5059641;28;20045;-61
2022/07/30 12:06:05;;;;;;;1.85;1.00;;;28.30;37.30;;;;;;5063306;28;20029;-61
2022/07/30 12:08:42;;;;;;;3.13;1.23;;;28.20;36.70;;;;;;5030953;28;20030;-62
2022/07/30 12:11:08;;;;;;;4.30;1.10;;;28.10;36.00;;;;;;5054248;28;20043;-62
2022/07/30 12:13:35;;;;;;;2.42;1.17;;;28.10;37.40;;;;;;5035231;28;20030;-61
2022/07/30 12:16:05;;;;;;;2.42;1.20;;;28.00;37.70;;;;;;5049049;28;20444;-62
2022/07/30 12:18:31;;;;;;;1.75;1.10;;;28.00;37.60;;;;;;5030991;28;20164;-62
2022/07/30 12:20:59;;;;;;;2.22;1.17;;;27.90;37.50;;;;;;5060973;28;20029;-61
2022/07/30 12:23:26;;;;;;;2.20;1.25;;;27.90;37.90;;;;;;5031965;28;20030;-60
2022/07/30 12:25:51;;;;;;;3.15;1.10;;;27.80;37.90;;;;;;5061051;28;20032;-62
2022/07/30 12:28:23;;;;;;;1.48;0.93;;;27.70;38.40;;;;;;5043555;28;20111;-61
2022/07/30 12:30:50;;;;;;;6.20;1.30;;;27.70;38.80;;;;;;5044047;28;20477;-61
2022/07/30 12:33:15;;;;;;;4.28;1.08;;;27.80;39.00;;;;;;5046201;28;20025;-61
2022/07/30 12:35:49;;;;;;;2.90;1.42;;;27.90;39.10;;;;;;5039328;28;20029;-62
2022/07/30 12:38:15;;;;;;;2.42;1.40;;;28.00;38.80;;;;;;5041365;28;20037;-59
2022/07/30 12:41:04;;;;;;;3.10;1.27;;;28.20;37.50;;;;;;5039626;28;20037;-61
2022/07/30 12:43:49;;;;;;;4.03;1.30;;;28.20;36.70;;;;;;5034429;28;20482;-61
2022/07/30 12:46:26;;;;;;;3.05;1.15;;;28.30;36.40;;;;;;5046530;28;20126;-62
2022/07/30 12:48:59;;;;;;;3.33;1.95;;;28.20;36.30;;;;;;5038034;28;20040;-59
2022/07/30 12:51:27;;;;;;;17.30;8.27;;;28.20;36.30;;;;;;5038340;28;20025;-59
2022/07/30 12:53:54;;;;;;;4.90;2.55;;;28.20;37.10;;;;;;5028307;28;20538;-62
2022/07/30 12:56:23;;;;;;;2.72;1.52;;;28.20;36.60;;;;;;5041128;28;20083;-62